Latest Coastal Weather Observations for Moorabbin Airport

IDV60701

Issued at 6:41 am EDT Sunday 19 November 2017 (issued every 10 minutes, with the page automatically refreshed every 10 minutes)

About coastal observations | Map of coastal stations | Coastal observations for VIC | Marine services | Other Formats
Station Details ID: 086077 Name: MOORABBIN AIRPORT Lat: -37.98 Lon: 145.10 Height: 12.1 m
Data from the previous 72 hours. | See also: Recent months at Moorabbin Airport
Date/Time
EDT
Temp
°C
Wind Pressure Rain since
9am
mm
Weather Cloud Vis
km
Sea
Height
m
Swell
Dir  Spd
kts
Gust
kts
hPa Trend Height
m
Period
s
Dir
19/06:30am 15.0 CALM 0 0 1019.5 - 0.2 - - - - - - -
19/06:00am 14.8 CALM 0 0 1019.2 - 0.2 - - - - - - -
19/05:30am 14.6 N 1 5 1018.8 - 0.2 - - - - - - -
19/05:00am 14.5 CALM 0 0 1018.7 - 0.2 - - - - - - -
19/04:30am 14.3 NNE 1 3 1018.7 - 0.2 - - - - - - -
19/04:00am 15.0 CALM 0 0 1018.6 - 0.2 - - - - - - -
19/03:30am 15.2 WNW 1 3 1018.5 - 0.2 - - - - - - -
19/03:00am 15.8 NNW 4 5 1018.4 - 0.2 - - - - - - -
19/02:30am 16.1 NNW 3 4 1018.3 - 0.2 - - - - - - -
19/02:00am 16.3 NW 4 5 1018.6 - 0.2 - - - - - - -
19/01:30am 16.1 NW 3 4 1018.5 - 0.2 - - - - - - -
19/01:00am 16.0 SSW 2 5 1018.5 - 0.2 - - - - - - -
19/12:30am 16.9 NW 3 3 1018.5 - 0.2 - - 10 - - - -
19/12:00am 17.0 N 3 4 1018.5 - 0.2 - - - - - - -
 
Date/Time
EDT
Temp
°C
Wind Pressure Rain since
9am
mm
Weather Cloud Vis
km
Sea
Height
m
Swell
Dir  Spd
kts
Gust
kts
hPa Trend Height
m
Period
s
Dir
18/11:30pm 16.6 ENE 4 5 1018.4 - 0.2 - - 10 - - - -
18/11:00pm 17.5 SSW 1 4 1018.2 - 0.2 - - 10 - - - -
18/10:30pm 17.8 SW 4 6 1018.0 - 0.2 - - 10 - - - -
18/10:00pm 18.4 N 1 3 1017.7 - 0.2 - - 10 - - - -
18/09:30pm 18.4 ENE 4 5 1017.3 - 0.2 - - 10 - - - -
18/09:00pm 18.3 SE 3 5 1017.0 - 0.2 - Partly cloudy 10 - - - -
18/08:30pm 19.6 NE 6 6 1016.8 - 0.2 - - 10 - - - -
18/08:00pm 20.1 NNE 4 6 1016.6 - 0.2 - - 10 - - - -
18/07:30pm 20.9 NNW 2 5 1016.5 - 0.2 - - 10 - - - -
18/07:00pm 20.3 NE 6 9 1016.0 - 0.2 - Partly cloudy 10 - - - -
18/06:30pm 20.1 NNE 5 8 1016.3 - 0.2 - Partly cloudy 10 - - - -
18/06:00pm 20.1 N 11 15 1016.1 - 0.2 - Mostly cloudy 10 - - - -
18/05:45pm 19.7 N 13 17 1016.0 - 0.2 - Partly cloudy 10 - - - -
18/05:30pm 19.7 N 14 19 1015.9 - 0.2 - Partly cloudy 4 - - - -
18/05:26pm 20.1 N 15 19 1015.9 - 0.2 - Partly cloudy 4 - - - -
18/05:00pm 24.3 ENE 13 23 1015.5 - 0.2 - Partly cloudy 10 - - - -
18/04:30pm 28.1 SE 11 15 1014.6 - 0.2 - Partly cloudy 10 - - - -
18/04:00pm 27.7 SE 10 13 1014.6 - 0.2 - Partly cloudy 10 - - - -
18/03:30pm 28.2 SSE 11 16 1014.7 - 0.2 - Partly cloudy 10 - - - -
18/03:00pm 27.8 SSE 8 12 1015.0 - 0.2 - Partly cloudy 10 - - - -
18/02:30pm 25.9 SW 8 13 1015.2 - 0.2 - Partly cloudy 10 - - - -
18/02:00pm 25.9 SSW 10 13 1015.5 - 0.2 - Partly cloudy 10 - - - -
18/01:30pm 26.3 SSW 12 14 1015.7 - 0.2 - Partly cloudy 10 - - - -
18/01:00pm 27.6 NE 7 11 1016.1 - 0.2 - Partly cloudy 10 - - - -
18/12:30pm 26.8 NE 6 11 1016.1 - 0.2 - Partly cloudy 10 - - - -
18/12:00pm 27.0 NNE 11 16 1016.2 - 0.2 - Partly cloudy 10 - - - -
18/11:30am 26.1 NNE 7 12 1016.2 - 0.2 - Partly cloudy 10 - - - -
18/11:00am 26.4 NNE 10 14 1016.3 - 0.2 - Partly cloudy 10 - - - -
18/10:30am 25.6 NE 9 13 1016.4 - 0.2 - - 10 - - - -
18/10:00am 24.5 E 7 10 1016.5 - 0.2 - - 10 - - - -
18/09:30am 23.1 ESE 7 11 1016.7 - 0.0 - - 10 - - - -
18/09:00am 21.7 E 6 7 1016.8 - 7.2 - - 10 - - - -
18/08:30am 20.9 ESE 4 6 1016.6 - 7.2 - - 10 - - - -
18/08:00am 19.7 CALM 0 4 1016.5 - 7.2 - - 10 - - - -
18/07:30am 18.4 ESE 4 5 1016.3 - 7.2 - - 10 - - - -
18/07:00am 16.6 SSE 3 5 1016.1 - 7.2 - - - - - - -
18/06:30am 15.5 N 4 5 1015.7 - 7.2 - - - - - - -
18/06:00am 15.4 N 1 5 1015.3 - 7.2 - - - - - - -
18/05:30am 15.5 ESE 4 5 1015.0 - 7.2 - - - - - - -
18/05:00am 16.2 E 6 6 1014.8 - 7.2 - Partly cloudy - - - - -
18/04:30am 17.0 NNE 7 9 1015.2 - 7.2 - Partly cloudy - - - - -
18/04:00am 17.1 NNW 1 4 1014.6 - 7.2 - Partly cloudy 10 - - - -
18/03:50am 17.1 NW 6 9 1014.3 - 7.2 - Partly cloudy 10 - - - -
18/03:35am 17.1 N 8 9 1014.5 - 7.2 - Partly cloudy 5 - - - -
18/03:30am 17.2 N 7 9 1014.5 - 6.6 - Partly cloudy 10 - - - -
18/03:00am 17.0 NW 3 4 1014.0 - 6.4 - Cloudy 10 - - - -
18/02:30am 17.5 NE 6 8 1014.4 - 6.4 - Partly cloudy 10 - - - -
18/02:00am 17.1 ENE 9 11 1014.4 - 6.4 - Partly cloudy - - - - -
18/01:30am 16.2 CALM 0 0 1013.8 - 6.4 - Partly cloudy - - - - -
18/01:00am 16.6 CALM 0 0 1014.0 - 6.4 - Partly cloudy - - - - -
18/12:30am 17.1 NNE 2 3 1013.8 - 6.4 - - - - - - -
18/12:00am 17.1 SE 6 7 1013.8 - 6.4 - Cloudy - - - - -
 
Date/Time
EDT
Temp
°C
Wind Pressure Rain since
9am
mm
Weather Cloud Vis
km
Sea
Height
m
Swell
Dir  Spd
kts
Gust
kts
hPa Trend Height
m
Period
s
Dir
17/11:30pm 17.5 SE 4 5 1013.7 - 6.4 - - - - - - -
17/11:00pm 17.5 NNE 3 5 1014.1 - 6.4 - - - - - - -
17/10:30pm 16.6 NNW 3 4 1013.1 - 6.4 - - - - - - -
17/10:00pm 17.0 NNW 3 4 1013.0 - 6.4 - - - - - - -
17/09:30pm 17.5 NNE 1 3 1012.7 - 6.4 - - - - - - -
17/09:00pm 17.7 SE 1 3 1012.8 - 6.4 - - 10 - - - -
17/08:30pm 18.4 SE 4 5 1012.8 - 6.4 - - 10 - - - -
17/08:00pm 19.0 SE 5 6 1012.7 - 6.4 - - 10 - - - -
17/07:30pm 20.1 ESE 7 10 1012.5 - 6.4 - - 10 - - - -
17/07:00pm 20.0 ESE 7 9 1012.2 - 6.4 - Partly cloudy - - - - -
17/06:30pm 19.2 ESE 15 23 1012.3 - 5.6 - Partly cloudy 10 - - - -
17/06:21pm 20.2 ESE 14 24 1012.4 - 5.4 - Partly cloudy 10 - - - -
17/06:00pm 21.1 ESE 10 13 1012.3 - 5.2 Recent precip. Cloudy - - - - -
17/05:30pm 20.3 SE 9 12 1012.3 - 3.2 - Partly cloudy 6 - - - -
17/05:14pm 20.5 SE 12 14 1012.3 - 1.0 - Partly cloudy 5 - - - -
17/05:00pm 22.5 SSE 15 23 1012.3 - 0.0 - Partly cloudy 10 - - - -
17/04:30pm 24.2 SE 15 19 1012.2 - 0.0 - Partly cloudy 10 - - - -
17/04:00pm 23.7 SSE 12 17 1012.6 - 0.0 - Partly cloudy 10 - - - -
17/03:30pm 22.9 SSE 11 15 1012.5 - 0.0 - Partly cloudy 10 - - - -
17/03:00pm 21.2 S 11 15 1012.4 - 0.0 - Cloudy 10 - - - -
17/02:30pm 22.8 SSW 10 14 1012.7 - 0.0 - Partly cloudy 10 - - - -
17/02:00pm 24.9 NNE 4 9 1013.0 - 0.0 - - 10 - - - -
17/01:30pm 23.3 NNW 10 14 1012.7 - 0.0 - - 10 - - - -
17/01:00pm 23.4 NNW 12 17 1012.8 - 0.0 - Partly cloudy 10 - - - -
17/12:30pm 24.2 W 9 13 1013.3 - 0.0 - Partly cloudy 10 - - - -
17/12:00pm 23.3 SW 6 12 1013.0 - 0.0 - Cloudy 10 - - - -
17/11:30am 24.2 ESE 8 13 1013.3 - 0.0 - Partly cloudy 10 - - - -
17/11:00am 23.7 E 9 13 1013.4 - 0.0 - Partly cloudy 10 - - - -
17/10:30am 23.2 ESE 5 9 1013.5 - 0.0 - Partly cloudy 10 - - - -
17/10:00am 22.6 E 6 8 1013.7 - 0.0 - Partly cloudy 10 - - - -
17/09:30am 22.5 ENE 4 7 1013.6 - 0.0 - Partly cloudy 10 - - - -
17/09:00am 22.3 ENE 6 8 1013.6 - 6.6 - Partly cloudy 10 - - - -
17/08:30am 20.9 E 5 6 1013.5 - 6.6 - Partly cloudy 10 - - - -
17/08:00am 19.9 NE 5 6 1013.4 - 6.6 - Partly cloudy 10 - - - -
17/07:30am 18.4 E 3 4 1013.3 - 6.6 - Partly cloudy 10 - - - -
17/07:00am 16.7 ESE 4 5 1013.0 - 6.6 - Partly cloudy - - - - -
17/06:30am 15.3 ESE 5 6 1012.8 - 6.6 - - - - - - -
17/06:00am 15.2 E 1 5 1012.4 - 6.6 - Mostly clear - - - - -
17/05:30am 16.1 ESE 2 7 1012.1 - 6.6 - Partly cloudy - - - - -
17/05:00am 17.0 CALM 0 1 1011.9 - 6.6 - Cloudy - - - - -
17/04:30am 16.9 NNE 3 4 1011.9 - 6.6 - Partly cloudy - - - - -
17/04:00am 16.9 N 4 5 1012.0 - 6.6 - Cloudy - - - - -
17/03:30am 16.9 ESE 2 5 1012.1 - 6.6 - Cloudy - - - - -
17/03:00am 16.9 ESE 4 4 1012.1 - 6.6 - Cloudy - - - - -
17/02:30am 16.8 ESE 5 6 1012.1 - 6.6 - Cloudy - - - - -
17/02:00am 16.5 SSE 2 5 1012.3 - 6.6 - Partly cloudy - - - - -
17/01:30am 16.3 NNE 1 4 1012.6 - 6.6 - Partly cloudy - - - - -
17/01:00am 16.2 SE 3 4 1012.5 - 6.6 - - - - - - -
17/12:30am 16.3 ESE 4 5 1012.3 - 6.6 - - - - - - -
17/12:00am 16.7 SE 4 5 1012.2 - 6.6 - Mostly clear - - - - -
 
Date/Time
EDT
Temp
°C
Wind Pressure Rain since
9am
mm
Weather Cloud Vis
km
Sea
Height
m
Swell
Dir  Spd
kts
Gust
kts
hPa Trend Height
m
Period
s
Dir
16/11:30pm 16.2 E 1 5 1011.9 - 6.6 - Partly cloudy - - - - -
16/11:00pm 16.7 NNW 1 4 1011.9 - 6.6 - - - - - - -
16/10:30pm 17.3 SE 2 5 1011.8 - 6.6 - - - - - - -
16/10:00pm 17.6 SE 3 4 1011.8 - 6.6 - - - - - - -
16/09:30pm 18.1 E 6 7 1011.7 - 6.6 - Partly cloudy - - - - -
16/09:00pm 18.1 ESE 6 7 1011.5 - 6.6 - Cloudy - - - - -
16/08:30pm 18.7 ESE 7 9 1011.3 - 6.6 - - 10 - - - -
16/08:00pm 19.4 ESE 9 11 1011.0 - 6.6 - Partly cloudy 10 - - - -
16/07:30pm 19.8 ESE 9 12 1011.1 - 6.6 - Partly cloudy 10 - - - -
16/07:00pm 19.6 ESE 9 12 1010.7 - 6.6 - Cloudy - - - - -
16/06:30pm 19.6 ESE 9 12 1010.5 - 6.6 - Cloudy - - - - -
16/06:00pm 20.0 ESE 9 11 1010.5 - 6.6 Recent precip. Cloudy - - - - -
16/05:30pm 19.3 ESE 7 9 1010.4 - 6.6 - Partly cloudy - - - - -
16/05:00pm 20.2 E 11 15 1010.3 - 5.4 - Partly cloudy 10 - - - -
16/04:30pm 21.0 ESE 10 14 1010.1 - 5.2 - Cloudy 10 - - - -
16/04:00pm 20.2 ESE 7 9 1010.1 - 5.2 - Partly cloudy 10 - - - -
16/03:30pm 20.6 ENE 7 9 1010.1 - 5.2 - Partly cloudy 10 - - - -
16/03:00pm 19.7 NE 5 6 1010.0 - 5.2 Recent precip. Cloudy - - - - -
16/02:30pm 19.2 ESE 8 10 1010.3 - 5.0 - Cloudy - - - - -
16/02:00pm 19.8 E 7 9 1010.8 - 4.4 - Partly cloudy - - - - -
16/01:30pm 20.2 E 7 10 1011.0 - 3.4 - Partly cloudy 10 - - - -
16/01:00pm 20.1 ENE 5 8 1011.3 - 3.2 - Partly cloudy 10 - - - -
16/12:30pm 19.6 E 8 11 1011.3 - 3.2 - Partly cloudy - - - - -
16/12:00pm 19.0 SE 11 14 1011.0 - 3.2 Recent precip. Cloudy - - - - -
16/11:30am 18.9 SE 8 10 1011.2 - 2.8 - Partly cloudy - - - - -
16/11:00am 19.3 ESE 7 8 1011.4 - 2.0 - Partly cloudy - - - - -
16/10:30am 19.4 ENE 2 4 1011.4 - 1.4 - Partly cloudy - - - - -
16/10:00am 19.1 NE 6 8 1011.4 - 0.8 - Partly cloudy 9 - - - -
16/09:30am 19.4 E 4 5 1010.9 - 0.2 - Cloudy 10 - - - -
16/09:00am 19.0 ENE 6 10 1010.8 - 2.4 - Cloudy - - - - -
16/08:30am 19.0 ESE 8 11 1010.1 - 2.4 - Partly cloudy - - - - -
16/08:00am 18.9 ESE 6 8 1010.1 - 2.4 - Partly cloudy - - - - -
16/07:30am 18.2 E 5 6 1010.3 - 2.4 - Partly cloudy - - - - -
16/07:00am 17.4 SSE 1 4 1010.4 - 2.4 - Partly cloudy - - - - -

Other Formats:

Comma delimited format used in spreadsheet applications
http://www.bom.gov.au/fwo/IDV60701/IDV60701.94870.axf

JavaScript Object Notation format (JSON) in row-major order
http://www.bom.gov.au/fwo/IDV60701/IDV60701.94870.json